Ayrshire, IA

7:01 AM CDT on August 31, 2015 (GMT -0500)
Mallard | | Change Station
CLOSE
Current Station
Personal Weather Station
Location: Mallard, IA
Elevation: 1224 ft
Nearby Weather Stations
Active Advisory: Special Statement

Elev 1224 ft 42.94 °N, 94.68 °W | Updated 14 minutes ago

Fog
Fog
61.5 °F
Feels Like 61.5 °F
N
1.0
Wind Variable Wind from WNW
Gusts 2.0 mph

Today
High -- | Low -- °F
--% Chance of Precip.
Yesterday
High -- | Low -- °F
Precip. -- in
6:42 AM 7:56 PM
Waning Gibbous, 96% visible
Pressure 29.93 in
Visibility 2.5 miles
Clouds Clear
Dew Point 61 °F
Humidity 99%
Rainfall 0.00 in
Snow Depth Not available.
UV 0 out of 12
Pollen 10.60 out of 12
Air Quality Not available.
Flu Activity Not available.
METAR KSPW 311053Z AUTO 16006KT 2 1/2SM BR CLR 17/16 A2995 RMK AO2 SLP135 T01720161 $
Pressure 29.93 in
Visibility 2.5 miles
Clouds Clear
Dew Point 61 °F
Humidity 99%
Rainfall 0.00 in
Snow Depth Not available.
UV 0 out of 12
Pollen 10.60 out of 12
Air Quality Not available.
Flu Activity Not available.
METAR KSPW 311053Z AUTO 16006KT 2 1/2SM BR CLR 17/16 A2995 RMK AO2 SLP135 T01720161 $

10-Day Weather Forecast

×

Almanac

Astronomy

Aug. 31, 2015 Rise Set
Actual Time
Civil Twilight
Nautical Twilight
Astronomical Twilight
Moon
Length of Visible Light
Length of Day
Tomorrow will be .
, % of the Moon is Illuminated

Today's Extremes

State Highs State Lows

Community

WunderPhotos

Upload Photos

1,851,218 photos uploaded!

WunderBlogs® & News

Nearby

Air Quality

  Air Quality AQ Index Pollutant
Not available.

Snow Depth

Station Depth Elevation

Earthquake Activity

City Distance Mag. Time & Date
Minimum magnitude displayed is 2.5.

Coastal Water Temperatures

Place Temperature

Stations

Nearby Weather Stations

Station Location Temp. Windchill Dew Point Humidity Wind Precip. Elev Updated Type
                   
Special Statement
Statement as of 3:21 AM CDT on August 31, 2015

... Areas of fog through the early morning hours...

Fog will be prevalent in many areas until around 900 am and may be
dense in spots... especially low lying areas. Visibilities may dip
to a quarter mile at times. Motorists are urged to slow
down... use low beam headlights and allow for extra stopping
distance between vehicles.


Small

321 am CDT Mon Aug 31 2015

... Areas of fog through the early morning hours...

Fog will be prevalent in many areas until around 900 am and may be
dense in spots... especially low lying areas. Visibilities may dip
to a quarter mile at times. Motorists are urged to slow
down... use low beam headlights and allow for extra stopping
distance between vehicles.


Small